createdAt,value
2019-02-17T00:01:10.035Z,37.87
2019-02-17T00:03:58.499Z,42.23
2019-02-17T00:06:49.693Z,40.07
2019-02-17T00:09:40.433Z,41.60
2019-02-17T00:12:28.016Z,42.63
2019-02-17T00:15:18.794Z,40.23
2019-02-17T00:18:06.779Z,39.83
2019-02-17T00:20:56.205Z,39.13
2019-02-17T00:23:44.347Z,42.63
2019-02-17T00:26:46.648Z,41.70
2019-02-17T00:29:37.137Z,42.53
2019-02-17T00:32:27.113Z,43.33
2019-02-17T00:35:15.270Z,40.93
2019-02-17T00:38:02.644Z,40.13
2019-02-17T00:40:51.243Z,42.43
2019-02-17T00:43:39.141Z,41.63
2019-02-17T00:46:27.163Z,39.57
2019-02-17T00:49:15.607Z,39.17
2019-02-17T00:52:07.898Z,45.40
2019-02-17T00:54:56.186Z,43.30
2019-02-17T00:57:44.774Z,40.70
2019-02-17T01:00:37.163Z,36.93
2019-02-17T01:03:25.534Z,35.70
2019-02-17T01:06:13.950Z,36.17
2019-02-17T01:09:06.885Z,40.73
2019-02-17T01:11:54.950Z,43.87
2019-02-17T01:14:46.105Z,41.73
2019-02-17T01:17:37.844Z,40.40
2019-02-17T01:20:26.121Z,42.77
2019-02-17T01:23:13.852Z,46.00
2019-02-17T01:26:05.321Z,40.80
2019-02-17T01:28:54.529Z,39.37
2019-02-17T01:31:42.460Z,38.73
2019-02-17T01:34:30.323Z,40.47
2019-02-17T01:37:18.467Z,41.40
2019-02-17T01:40:07.116Z,41.93
2019-02-17T01:42:55.122Z,37.60
2019-02-17T01:45:45.917Z,37.83
2019-02-17T01:48:33.685Z,39.57
2019-02-17T01:51:21.860Z,41.00
2019-02-17T01:54:09.506Z,42.17
2019-02-17T02:20:09.173Z,39.17
2019-02-17T02:27:08.425Z,36.93
2019-02-17T02:29:58.908Z,39.70
2019-02-17T02:32:46.703Z,38.83
2019-02-17T02:35:34.450Z,40.30
2019-02-17T02:39:18.376Z,43.37
2019-02-17T02:53:35.738Z,41.60
2019-02-17T03:01:09.313Z,40.47
2019-02-17T03:12:00.302Z,38.73
2019-02-17T03:19:35.520Z,40.77
2019-02-17T03:26:29.275Z,40.07
2019-02-17T03:29:20.357Z,45.23
2019-02-17T03:32:11.175Z,39.53
2019-02-17T03:34:58.660Z,43.43
2019-02-17T03:37:46.789Z,46.10
2019-02-17T03:40:34.794Z,37.87
2019-02-17T03:43:25.908Z,42.27
2019-02-17T03:46:13.971Z,45.53
2019-02-17T03:49:01.706Z,45.77
2019-02-17T03:51:53.544Z,43.60
2019-02-17T03:54:41.268Z,38.40
2019-02-17T03:57:31.312Z,44.50
2019-02-17T04:00:21.103Z,41.83
2019-02-17T04:03:11.020Z,39.33
2019-02-17T04:05:58.987Z,39.17
2019-02-17T04:08:47.434Z,43.27
2019-02-17T04:11:41.740Z,41.60
2019-02-17T04:14:35.087Z,40.20
2019-02-17T04:17:23.107Z,45.23
2019-02-17T04:20:10.832Z,41.47
2019-02-17T04:22:58.477Z,41.20
2019-02-17T04:25:46.004Z,44.77
2019-02-17T04:28:33.587Z,37.43
2019-02-17T04:31:21.275Z,43.20
2019-02-17T04:34:08.917Z,46.10
2019-02-17T04:36:56.441Z,40.37
2019-02-17T04:39:43.609Z,37.50
2019-02-17T04:42:31.106Z,39.47
2019-02-17T04:45:18.773Z,38.30
2019-02-17T04:48:06.141Z,39.57
2019-02-17T04:50:53.682Z,43.20
2019-02-17T04:53:41.386Z,39.70
2019-02-17T04:56:28.950Z,45.67
2019-02-17T04:59:16.390Z,40.70
2019-02-17T05:02:03.933Z,38.27
2019-02-17T05:04:51.097Z,45.57
2019-02-17T05:07:39.317Z,40.93
2019-02-17T05:10:27.035Z,42.20
2019-02-17T05:13:14.495Z,40.13
2019-02-17T05:16:02.094Z,40.60
2019-02-17T05:18:49.730Z,40.63
2019-02-17T05:21:36.993Z,44.77
2019-02-17T05:24:24.694Z,40.07
2019-02-17T05:27:12.601Z,41.90
2019-02-17T05:30:00.558Z,41.20
2019-02-17T05:32:47.803Z,38.43
2019-02-17T05:35:35.167Z,39.13
2019-02-17T05:38:22.489Z,38.07
2019-02-17T05:41:09.964Z,40.80
2019-02-17T05:43:57.344Z,42.67
2019-02-17T05:46:45.225Z,41.90
2019-02-17T05:49:32.539Z,40.13
2019-02-17T05:52:20.400Z,38.83
2019-02-17T05:55:07.880Z,37.73
2019-02-17T05:57:55.839Z,37.63
2019-02-17T06:00:44.040Z,42.37
2019-02-17T06:03:31.492Z,43.50
2019-02-17T06:06:18.636Z,41.47
2019-02-17T06:09:06.732Z,42.03
2019-02-17T06:11:54.407Z,40.47
2019-02-17T06:14:41.866Z,39.67
2019-02-17T06:17:29.473Z,35.90
2019-02-17T06:20:17.254Z,43.17
2019-02-17T06:23:04.963Z,40.07
2019-02-17T06:25:52.378Z,35.47
2019-02-17T06:28:39.946Z,39.07
2019-02-17T06:31:27.284Z,38.37
2019-02-17T06:34:14.589Z,39.73
2019-02-17T06:37:02.432Z,36.00
2019-02-17T06:39:50.017Z,39.33
2019-02-17T06:42:37.477Z,39.13
2019-02-17T06:45:24.870Z,39.80
2019-02-17T06:48:12.849Z,37.80
2019-02-17T06:51:00.248Z,38.17
2019-02-17T06:53:47.410Z,34.17
2019-02-17T06:56:39.360Z,45.10
2019-02-17T06:59:27.146Z,37.50
2019-02-17T07:02:14.800Z,36.57
2019-02-17T07:05:09.834Z,38.00
2019-02-17T07:07:57.384Z,37.70
2019-02-17T07:10:44.998Z,41.33
2019-02-17T07:13:32.807Z,39.80
2019-02-17T07:16:22.208Z,40.97
2019-02-17T07:19:10.194Z,42.57
2019-02-17T07:21:57.928Z,39.73
2019-02-17T07:24:45.538Z,37.43
2019-02-17T07:27:33.733Z,47.10
2019-02-17T07:30:21.059Z,56.73
2019-02-17T07:33:08.646Z,51.20
2019-02-17T07:35:56.496Z,43.60
2019-02-17T07:38:43.868Z,47.97
2019-02-17T07:41:31.184Z,40.90
2019-02-17T07:44:18.772Z,42.77
2019-02-17T07:47:06.463Z,36.07
2019-02-17T07:49:54.481Z,37.93
2019-02-17T07:52:45.483Z,33.77
2019-02-17T07:55:33.553Z,31.80
2019-02-17T07:58:21.680Z,31.83
2019-02-17T08:01:10.121Z,28.43
2019-02-17T08:03:57.791Z,30.50
2019-02-17T08:06:45.532Z,31.70
2019-02-17T08:09:32.867Z,32.87
2019-02-17T08:12:20.309Z,31.20
2019-02-17T08:15:08.680Z,30.93
2019-02-17T08:17:56.066Z,33.27
2019-02-17T08:20:43.413Z,29.23
2019-02-17T08:23:31.054Z,33.87
2019-02-17T08:26:18.971Z,32.77
2019-02-17T08:29:06.306Z,30.63
2019-02-17T08:31:56.082Z,28.97
2019-02-17T08:34:43.965Z,23.20
2019-02-17T08:37:31.363Z,25.77
2019-02-17T08:40:18.682Z,26.97
2019-02-17T08:43:06.494Z,25.93
2019-02-17T08:45:53.636Z,28.20
2019-02-17T08:48:41.298Z,28.50
2019-02-17T08:51:28.687Z,26.73
2019-02-17T08:54:15.785Z,25.87
2019-02-17T08:57:03.087Z,25.57
2019-02-17T08:59:50.593Z,28.73
2019-02-17T09:02:40.660Z,28.90
2019-02-17T09:05:27.995Z,27.40
2019-02-17T09:08:15.720Z,27.80
2019-02-17T09:11:10.371Z,26.90
2019-02-17T09:14:01.605Z,24.47
2019-02-17T09:17:06.743Z,33.37
2019-02-17T09:20:01.626Z,26.70
2019-02-17T09:23:06.257Z,21.73
2019-02-17T09:26:05.770Z,21.23
2019-02-17T09:28:56.988Z,24.50
2019-02-17T09:32:00.580Z,23.73
2019-02-17T09:35:05.436Z,20.70
2019-02-17T09:38:12.443Z,18.90
2019-02-17T09:41:04.362Z,21.07
2019-02-17T09:44:24.839Z,18.97
2019-02-17T09:47:22.725Z,20.50
2019-02-17T09:50:33.056Z,20.03
2019-02-17T09:53:29.119Z,16.67
2019-02-17T09:56:22.489Z,20.20
2019-02-17T10:05:53.061Z,18.47
2019-02-17T10:08:42.837Z,17.90
2019-02-17T10:11:31.491Z,19.00
2019-02-17T10:14:26.592Z,22.87
2019-02-17T10:17:19.739Z,20.47
2019-02-17T10:20:20.069Z,22.60
2019-02-17T10:23:08.729Z,22.13
2019-02-17T10:26:00.038Z,21.50
2019-02-17T10:28:47.504Z,21.77
2019-02-17T10:31:35.070Z,21.00
2019-02-17T10:34:22.585Z,18.77
2019-02-17T10:37:09.972Z,19.27
2019-02-17T10:39:57.871Z,18.23
2019-02-17T10:42:45.520Z,21.90
2019-02-17T10:45:33.272Z,20.83
2019-02-17T10:48:21.506Z,21.13
2019-02-17T10:51:08.734Z,19.97
2019-02-17T10:53:56.467Z,18.27
2019-02-17T10:56:44.029Z,19.90
2019-02-17T10:59:31.215Z,18.83
2019-02-17T11:02:18.326Z,19.60
2019-02-17T11:05:05.664Z,20.27
2019-02-17T11:07:53.225Z,19.30
2019-02-17T11:10:40.747Z,19.63
2019-02-17T11:13:28.255Z,23.40
2019-02-17T11:16:16.171Z,19.83
2019-02-17T11:19:03.673Z,18.03
2019-02-17T11:21:51.452Z,21.77
2019-02-17T11:24:39.012Z,20.63
2019-02-17T11:27:26.852Z,20.70
2019-02-17T11:30:15.246Z,20.83
2019-02-17T11:33:02.996Z,20.20
2019-02-17T11:35:50.361Z,19.10
2019-02-17T11:38:38.639Z,15.07
2019-02-17T11:41:26.079Z,15.67
2019-02-17T11:44:13.252Z,18.43
2019-02-17T11:47:00.701Z,16.93
2019-02-17T11:49:48.074Z,16.93
2019-02-17T11:52:36.064Z,15.30
2019-02-17T11:55:23.512Z,14.20
2019-02-17T11:58:11.343Z,17.10
2019-02-17T12:00:58.857Z,15.13
2019-02-17T12:03:46.192Z,16.37
2019-02-17T12:06:33.521Z,16.93
2019-02-17T12:09:20.935Z,16.80
2019-02-17T12:12:31.601Z,17.07
2019-02-17T12:15:27.645Z,16.43
2019-02-17T12:18:18.164Z,15.10
2019-02-17T12:21:32.261Z,14.83
2019-02-17T12:24:32.070Z,13.80
2019-02-17T12:27:43.583Z,14.17
2019-02-17T12:30:41.846Z,15.37
2019-02-17T12:33:36.445Z,12.40
2019-02-17T12:36:38.628Z,12.90
2019-02-17T12:43:03.869Z,13.80
2019-02-17T12:46:15.225Z,15.13
2019-02-17T12:49:07.169Z,13.93
2019-02-17T12:52:19.004Z,15.03
2019-02-17T12:55:13.876Z,12.30
2019-02-17T12:58:30.036Z,13.60
2019-02-17T13:01:27.320Z,14.10
2019-02-17T13:04:22.931Z,14.83
2019-02-17T13:07:13.933Z,13.77
2019-02-17T13:10:03.832Z,12.13
2019-02-17T13:12:58.432Z,11.83
2019-02-17T13:15:56.006Z,10.27
2019-02-17T13:18:43.112Z,11.53
2019-02-17T13:21:30.877Z,9.87
2019-02-17T13:24:18.115Z,10.33
2019-02-17T13:27:05.492Z,9.00
2019-02-17T13:29:53.291Z,7.10
2019-02-17T13:32:41.956Z,8.27
2019-02-17T13:35:29.327Z,7.73
2019-02-17T13:38:16.811Z,7.30
2019-02-17T13:41:04.750Z,6.63
2019-02-17T13:43:52.087Z,6.50
2019-02-17T13:46:39.947Z,7.20
2019-02-17T13:49:27.107Z,7.93
2019-02-17T13:52:14.656Z,6.63
2019-02-17T13:55:02.338Z,8.10
2019-02-17T13:58:07.733Z,7.97
2019-02-17T14:01:17.334Z,6.03
2019-02-17T14:04:13.041Z,6.43
2019-02-17T14:07:00.608Z,8.57
2019-02-17T14:09:50.145Z,6.23
2019-02-17T14:12:37.317Z,5.73
2019-02-17T14:15:24.970Z,4.83
2019-02-17T14:18:12.350Z,5.17
2019-02-17T14:20:59.775Z,5.77
2019-02-17T14:23:47.588Z,5.67
2019-02-17T14:26:35.299Z,4.97
2019-02-17T14:29:22.710Z,4.67
2019-02-17T14:32:10.197Z,4.00
2019-02-17T14:34:57.691Z,5.03
2019-02-17T14:37:45.333Z,4.43
2019-02-17T14:40:32.920Z,3.97
2019-02-17T14:43:20.814Z,4.37
2019-02-17T14:46:08.636Z,4.00
2019-02-17T14:48:56.273Z,5.00
2019-02-17T14:51:43.692Z,4.30
2019-02-17T14:54:31.329Z,4.80
2019-02-17T14:57:19.282Z,4.40
2019-02-17T15:00:07.052Z,4.50
2019-02-17T15:02:54.617Z,4.63
2019-02-17T15:05:42.386Z,4.47
2019-02-17T15:08:30.752Z,4.63
2019-02-17T15:11:26.764Z,4.30
2019-02-17T15:14:14.531Z,4.70
2019-02-17T15:17:02.215Z,4.37
2019-02-17T15:19:49.582Z,3.87
2019-02-17T15:22:38.073Z,3.63
2019-02-17T15:25:26.609Z,3.50
2019-02-17T15:28:14.156Z,3.87
2019-02-17T15:31:01.226Z,4.07
2019-02-17T15:33:48.691Z,3.93
2019-02-17T15:36:35.767Z,4.17
2019-02-17T15:39:23.189Z,4.43
2019-02-17T15:42:12.665Z,5.10
2019-02-17T15:44:59.984Z,4.43
2019-02-17T15:47:50.773Z,4.20
2019-02-17T15:50:38.413Z,4.33
2019-02-17T15:53:27.062Z,3.70
2019-02-17T15:56:14.214Z,4.33
2019-02-17T15:59:01.540Z,3.90
2019-02-17T16:01:49.075Z,4.37
2019-02-17T16:04:36.654Z,3.80
2019-02-17T16:07:24.453Z,3.80
2019-02-17T16:10:12.041Z,5.57
2019-02-17T16:12:59.528Z,3.30
2019-02-17T16:15:48.001Z,3.93
2019-02-17T16:18:35.930Z,5.23
2019-02-17T16:21:47.310Z,5.93
2019-02-17T16:24:35.772Z,6.77
2019-02-17T16:27:38.646Z,7.00
2019-02-17T16:30:58.938Z,5.43
2019-02-17T16:34:15.964Z,4.73
2019-02-17T16:37:07.504Z,5.30
2019-02-17T16:40:20.513Z,4.83
2019-02-17T16:43:11.948Z,4.77
2019-02-17T16:46:00.703Z,5.10
2019-02-17T16:49:00.811Z,4.97
2019-02-17T16:52:01.573Z,4.50
2019-02-17T16:54:52.263Z,4.73
2019-02-17T16:57:44.301Z,4.93
2019-02-17T17:00:36.800Z,4.87
2019-02-17T17:03:36.560Z,4.57
2019-02-17T17:06:32.960Z,7.60
2019-02-17T17:09:38.224Z,5.07
2019-02-17T17:12:52.085Z,5.80
2019-02-17T17:15:40.820Z,5.83
2019-02-17T17:18:37.583Z,5.93
2019-02-17T17:21:37.068Z,6.23
2019-02-17T17:24:36.786Z,5.80
2019-02-17T17:27:37.421Z,5.83
2019-02-17T17:30:29.868Z,6.30
2019-02-17T17:33:38.196Z,8.70
2019-02-17T17:36:34.637Z,5.60
2019-02-17T17:39:28.397Z,6.70
2019-02-17T17:42:22.166Z,6.50
2019-02-17T17:45:16.552Z,7.53
2019-02-17T17:48:08.093Z,6.27
2019-02-17T17:51:05.865Z,7.80
2019-02-17T17:53:56.135Z,9.23
2019-02-17T17:56:49.191Z,7.73
2019-02-17T17:59:42.365Z,8.07
2019-02-17T18:02:48.633Z,9.87
2019-02-17T18:05:37.782Z,7.13
2019-02-17T18:08:29.713Z,7.73
2019-02-17T18:11:30.167Z,6.47
2019-02-17T18:14:22.811Z,6.47
2019-02-17T18:17:13.615Z,8.13
2019-02-17T18:20:23.667Z,11.43
2019-02-17T18:23:24.904Z,8.90
2019-02-17T18:26:19.400Z,9.40
2019-02-17T18:29:10.192Z,11.27
2019-02-17T18:32:26.408Z,9.63
2019-02-17T18:35:20.587Z,11.57
2019-02-17T18:38:12.919Z,10.40
2019-02-17T18:41:05.893Z,8.83
2019-02-17T18:44:00.785Z,11.87
2019-02-17T18:46:58.612Z,10.97
2019-02-17T18:49:59.181Z,11.80
2019-02-17T18:52:47.665Z,14.53
2019-02-17T18:55:34.768Z,11.20
2019-02-17T18:58:22.177Z,10.83
2019-02-17T19:01:09.586Z,10.40
2019-02-17T19:03:56.951Z,15.37
2019-02-17T19:06:44.233Z,14.50
2019-02-17T19:09:31.794Z,15.27
2019-02-17T19:12:19.234Z,15.10
2019-02-17T19:15:10.366Z,17.37
2019-02-17T19:18:08.488Z,18.63
2019-02-17T19:21:02.457Z,17.97
2019-02-17T19:23:52.618Z,18.07
2019-02-17T19:26:46.406Z,20.97
2019-02-17T19:29:33.750Z,16.47
2019-02-17T19:32:22.728Z,17.00
2019-02-17T19:35:13.325Z,23.57
2019-02-17T19:38:01.705Z,22.67
2019-02-17T19:40:48.750Z,27.50
2019-02-17T19:43:36.294Z,20.57
2019-02-17T19:46:24.191Z,24.20
2019-02-17T19:49:12.011Z,20.40
2019-02-17T19:52:16.216Z,18.03
2019-02-17T19:55:13.848Z,17.10
2019-02-17T19:58:07.229Z,17.50
2019-02-17T20:01:12.382Z,19.47
2019-02-17T20:04:16.286Z,19.27
2019-02-17T20:07:07.818Z,16.47
2019-02-17T20:10:06.284Z,18.13
2019-02-17T20:12:54.859Z,19.13
2019-02-17T20:15:46.254Z,17.93
2019-02-17T20:18:36.244Z,17.03
2019-02-17T20:21:23.613Z,17.77
2019-02-17T20:24:11.350Z,17.60
2019-02-17T20:26:59.115Z,16.77
2019-02-17T20:29:47.097Z,19.97
2019-02-17T20:32:34.752Z,22.10
2019-02-17T20:35:25.201Z,18.13
2019-02-17T20:38:13.430Z,18.93
2019-02-17T20:41:01.467Z,27.87
2019-02-17T20:43:53.421Z,20.40
2019-02-17T20:46:41.132Z,21.77
2019-02-17T20:49:29.695Z,22.50
2019-02-17T20:52:17.524Z,25.43
2019-02-17T20:55:06.593Z,25.33
2019-02-17T20:57:55.360Z,21.77
2019-02-17T21:00:49.160Z,20.67
2019-02-17T21:03:37.225Z,19.37
2019-02-17T21:06:25.793Z,22.47
2019-02-17T21:09:14.660Z,23.77
2019-02-17T21:12:02.708Z,22.27
2019-02-17T21:14:50.450Z,22.73
2019-02-17T21:17:39.929Z,23.73
2019-02-17T21:20:28.405Z,22.87
2019-02-17T21:23:16.940Z,22.23
2019-02-17T21:26:05.066Z,20.53
2019-02-17T21:28:52.905Z,19.13
2019-02-17T21:31:41.051Z,20.97
2019-02-17T21:34:29.898Z,19.63
2019-02-17T21:37:17.869Z,21.60
2019-02-17T21:40:06.491Z,19.57
2019-02-17T21:42:53.665Z,21.80
2019-02-17T21:45:41.103Z,19.70
2019-02-17T21:48:28.680Z,19.50
2019-02-17T21:51:15.973Z,20.93
2019-02-17T21:54:03.146Z,20.70
2019-02-17T21:56:50.590Z,20.07
2019-02-17T21:59:37.856Z,20.20
2019-02-17T22:02:25.613Z,21.33
2019-02-17T22:05:13.849Z,19.33
2019-02-17T22:08:01.202Z,22.03
2019-02-17T22:10:48.864Z,18.77
2019-02-17T22:13:36.478Z,19.50
2019-02-17T22:16:24.397Z,17.83
2019-02-17T22:19:11.869Z,19.40
2019-02-17T22:21:59.467Z,23.53
2019-02-17T22:24:46.973Z,20.43
2019-02-17T22:27:34.834Z,19.47
2019-02-17T22:30:22.472Z,23.70
2019-02-17T22:33:09.814Z,18.80
2019-02-17T22:35:57.264Z,23.20
2019-02-17T22:38:45.041Z,21.60
2019-02-17T22:41:32.758Z,21.20
2019-02-17T22:44:19.974Z,24.93
2019-02-17T22:47:07.695Z,24.17
2019-02-17T22:49:55.548Z,23.37
2019-02-17T22:52:43.377Z,20.53
2019-02-17T22:55:30.972Z,21.17
2019-02-17T22:58:19.279Z,21.67
2019-02-17T23:01:09.990Z,20.87
2019-02-17T23:03:57.777Z,19.43
2019-02-17T23:06:53.757Z,20.10
2019-02-17T23:09:34.797Z,26.87
2019-02-17T23:12:22.631Z,22.80
2019-02-17T23:15:10.094Z,20.97
2019-02-17T23:17:57.629Z,23.47
2019-02-17T23:20:45.234Z,21.10
2019-02-17T23:23:33.338Z,18.43
2019-02-17T23:26:20.567Z,21.77
2019-02-17T23:29:08.174Z,19.23
2019-02-17T23:31:55.883Z,22.83
2019-02-17T23:34:43.437Z,22.30
2019-02-17T23:37:31.018Z,23.73
2019-02-17T23:40:18.590Z,24.13
2019-02-17T23:43:06.222Z,20.80
2019-02-17T23:45:53.381Z,22.77
2019-02-17T23:48:40.528Z,22.93
2019-02-17T23:51:27.791Z,26.33
2019-02-17T23:54:15.422Z,22.80
2019-02-17T23:57:02.776Z,27.63
2019-02-17T23:59:50.355Z,26.33
